sensor_id;sensor_type;location;lat;lon;timestamp;P1;durP1;ratioP1;P2;durP2;ratioP2
60372;SDS011;46216;52.220;5.134;2022-08-19T00:01:21;7.10;;;6.47;;
60372;SDS011;46216;52.220;5.134;2022-08-19T00:03:47;6.95;;;6.05;;
60372;SDS011;46216;52.220;5.134;2022-08-19T00:06:13;7.72;;;6.50;;
60372;SDS011;46216;52.220;5.134;2022-08-19T00:08:39;6.22;;;5.63;;
60372;SDS011;46216;52.220;5.134;2022-08-19T00:11:05;9.15;;;6.25;;
60372;SDS011;46216;52.220;5.134;2022-08-19T00:13:31;7.05;;;5.93;;
60372;SDS011;46216;52.220;5.134;2022-08-19T00:15:56;7.03;;;6.40;;
60372;SDS011;46216;52.220;5.134;2022-08-19T00:18:24;6.63;;;6.03;;
60372;SDS011;46216;52.220;5.134;2022-08-19T00:20:50;7.03;;;6.13;;
60372;SDS011;46216;52.220;5.134;2022-08-19T00:23:16;6.85;;;6.18;;
60372;SDS011;46216;52.220;5.134;2022-08-19T00:25:41;7.10;;;6.40;;
60372;SDS011;46216;52.220;5.134;2022-08-19T00:28:06;6.72;;;6.10;;
60372;SDS011;46216;52.220;5.134;2022-08-19T00:30:32;6.82;;;5.95;;
60372;SDS011;46216;52.220;5.134;2022-08-19T00:32:58;6.72;;;6.22;;
60372;SDS011;46216;52.220;5.134;2022-08-19T00:35:23;7.38;;;6.38;;
60372;SDS011;46216;52.220;5.134;2022-08-19T00:37:50;9.02;;;7.07;;
60372;SDS011;46216;52.220;5.134;2022-08-19T00:40:15;7.80;;;7.10;;
60372;SDS011;46216;52.220;5.134;2022-08-19T00:42:42;8.82;;;6.93;;
60372;SDS011;46216;52.220;5.134;2022-08-19T00:45:10;7.38;;;6.65;;
60372;SDS011;46216;52.220;5.134;2022-08-19T00:47:41;9.15;;;7.22;;
60372;SDS011;46216;52.220;5.134;2022-08-19T00:50:07;7.90;;;7.25;;
60372;SDS011;46216;52.220;5.134;2022-08-19T00:52:36;9.93;;;8.05;;
60372;SDS011;46216;52.220;5.134;2022-08-19T00:55:10;12.25;;;8.32;;
60372;SDS011;46216;52.220;5.134;2022-08-19T00:57:53;8.77;;;7.82;;
60372;SDS011;46216;52.220;5.134;2022-08-19T01:00:23;8.40;;;7.50;;
60372;SDS011;46216;52.220;5.134;2022-08-19T01:02:50;9.60;;;8.40;;
60372;SDS011;46216;52.220;5.134;2022-08-19T01:05:18;10.77;;;9.30;;
60372;SDS011;46216;52.220;5.134;2022-08-19T01:07:48;11.07;;;9.98;;
60372;SDS011;46216;52.220;5.134;2022-08-19T01:10:16;10.63;;;9.38;;
60372;SDS011;46216;52.220;5.134;2022-08-19T01:12:45;10.75;;;9.75;;
60372;SDS011;46216;52.220;5.134;2022-08-19T01:15:13;11.75;;;9.40;;
60372;SDS011;46216;52.220;5.134;2022-08-19T01:17:41;11.20;;;10.10;;
60372;SDS011;46216;52.220;5.134;2022-08-19T01:20:12;10.65;;;9.55;;
60372;SDS011;46216;52.220;5.134;2022-08-19T01:22:54;11.30;;;10.20;;
60372;SDS011;46216;52.220;5.134;2022-08-19T01:25:24;12.68;;;10.50;;
60372;SDS011;46216;52.220;5.134;2022-08-19T01:27:53;12.00;;;9.35;;
60372;SDS011;46216;52.220;5.134;2022-08-19T01:30:24;10.10;;;9.20;;
60372;SDS011;46216;52.220;5.134;2022-08-19T01:32:52;10.18;;;9.15;;
60372;SDS011;46216;52.220;5.134;2022-08-19T01:35:19;9.63;;;8.73;;
60372;SDS011;46216;52.220;5.134;2022-08-19T01:37:59;10.00;;;8.90;;
60372;SDS011;46216;52.220;5.134;2022-08-19T01:40:29;10.90;;;9.40;;
60372;SDS011;46216;52.220;5.134;2022-08-19T01:42:56;10.18;;;9.13;;
60372;SDS011;46216;52.220;5.134;2022-08-19T01:45:23;10.00;;;9.10;;
60372;SDS011;46216;52.220;5.134;2022-08-19T01:47:50;10.75;;;9.70;;
60372;SDS011;46216;52.220;5.134;2022-08-19T01:50:16;10.15;;;8.63;;
60372;SDS011;46216;52.220;5.134;2022-08-19T01:52:42;10.60;;;9.50;;
60372;SDS011;46216;52.220;5.134;2022-08-19T01:55:16;11.20;;;9.70;;
60372;SDS011;46216;52.220;5.134;2022-08-19T01:57:46;10.90;;;9.80;;
60372;SDS011;46216;52.220;5.134;2022-08-19T02:00:16;10.23;;;9.27;;
60372;SDS011;46216;52.220;5.134;2022-08-19T02:02:43;10.25;;;9.25;;
60372;SDS011;46216;52.220;5.134;2022-08-19T02:05:09;10.98;;;9.88;;
60372;SDS011;46216;52.220;5.134;2022-08-19T02:07:36;11.57;;;10.40;;
60372;SDS011;46216;52.220;5.134;2022-08-19T02:10:03;12.70;;;10.32;;
60372;SDS011;46216;52.220;5.134;2022-08-19T02:12:32;12.27;;;11.05;;
60372;SDS011;46216;52.220;5.134;2022-08-19T02:14:58;12.88;;;11.57;;
60372;SDS011;46216;52.220;5.134;2022-08-19T02:17:24;13.05;;;11.80;;
60372;SDS011;46216;52.220;5.134;2022-08-19T02:19:49;13.73;;;12.10;;
60372;SDS011;46216;52.220;5.134;2022-08-19T02:22:15;12.02;;;10.73;;
60372;SDS011;46216;52.220;5.134;2022-08-19T02:24:40;11.18;;;10.05;;
60372;SDS011;46216;52.220;5.134;2022-08-19T02:27:05;11.27;;;10.25;;
60372;SDS011;46216;52.220;5.134;2022-08-19T02:29:31;12.07;;;9.65;;
60372;SDS011;46216;52.220;5.134;2022-08-19T02:31:56;10.35;;;9.25;;
60372;SDS011;46216;52.220;5.134;2022-08-19T02:34:22;9.48;;;8.60;;
60372;SDS011;46216;52.220;5.134;2022-08-19T02:36:49;10.60;;;8.77;;
60372;SDS011;46216;52.220;5.134;2022-08-19T02:39:14;10.77;;;8.88;;
60372;SDS011;46216;52.220;5.134;2022-08-19T02:41:40;10.40;;;9.40;;
60372;SDS011;46216;52.220;5.134;2022-08-19T02:44:05;11.43;;;9.23;;
60372;SDS011;46216;52.220;5.134;2022-08-19T02:46:32;9.80;;;8.85;;
60372;SDS011;46216;52.220;5.134;2022-08-19T02:49:00;10.30;;;9.40;;
60372;SDS011;46216;52.220;5.134;2022-08-19T02:51:31;11.07;;;9.85;;
60372;SDS011;46216;52.220;5.134;2022-08-19T02:53:58;11.15;;;10.05;;
60372;SDS011;46216;52.220;5.134;2022-08-19T02:56:25;11.75;;;10.10;;
60372;SDS011;46216;52.220;5.134;2022-08-19T02:58:52;11.27;;;10.02;;
60372;SDS011;46216;52.220;5.134;2022-08-19T03:01:22;12.05;;;10.75;;
60372;SDS011;46216;52.220;5.134;2022-08-19T03:03:51;12.95;;;10.80;;
60372;SDS011;46216;52.220;5.134;2022-08-19T03:06:16;13.13;;;11.25;;
60372;SDS011;46216;52.220;5.134;2022-08-19T03:08:43;13.95;;;10.63;;
60372;SDS011;46216;52.220;5.134;2022-08-19T03:11:20;15.90;;;12.15;;
60372;SDS011;46216;52.220;5.134;2022-08-19T03:13:49;14.15;;;12.50;;
60372;SDS011;46216;52.220;5.134;2022-08-19T03:16:16;16.38;;;13.05;;
60372;SDS011;46216;52.220;5.134;2022-08-19T03:18:42;14.60;;;12.80;;
60372;SDS011;46216;52.220;5.134;2022-08-19T03:21:08;17.48;;;12.48;;
60372;SDS011;46216;52.220;5.134;2022-08-19T03:23:34;12.93;;;11.63;;
60372;SDS011;46216;52.220;5.134;2022-08-19T03:26:02;14.60;;;12.48;;
60372;SDS011;46216;52.220;5.134;2022-08-19T03:28:30;14.90;;;13.00;;
60372;SDS011;46216;52.220;5.134;2022-08-19T03:31:04;13.93;;;12.48;;
60372;SDS011;46216;52.220;5.134;2022-08-19T03:33:33;14.00;;;12.18;;
60372;SDS011;46216;52.220;5.134;2022-08-19T03:36:00;14.98;;;13.30;;
60372;SDS011;46216;52.220;5.134;2022-08-19T03:38:30;14.30;;;12.80;;
60372;SDS011;46216;52.220;5.134;2022-08-19T03:40:57;16.88;;;13.70;;
60372;SDS011;46216;52.220;5.134;2022-08-19T03:43:22;18.17;;;14.45;;
60372;SDS011;46216;52.220;5.134;2022-08-19T03:45:48;20.58;;;16.95;;
60372;SDS011;46216;52.220;5.134;2022-08-19T03:48:13;23.70;;;17.70;;
60372;SDS011;46216;52.220;5.134;2022-08-19T03:50:40;28.55;;;19.42;;
60372;SDS011;46216;52.220;5.134;2022-08-19T03:53:05;30.52;;;20.70;;
60372;SDS011;46216;52.220;5.134;2022-08-19T03:55:32;28.45;;;20.05;;
60372;SDS011;46216;52.220;5.134;2022-08-19T03:57:57;30.20;;;20.98;;
60372;SDS011;46216;52.220;5.134;2022-08-19T04:00:23;34.47;;;21.83;;
60372;SDS011;46216;52.220;5.134;2022-08-19T04:02:48;31.75;;;21.95;;
60372;SDS011;46216;52.220;5.134;2022-08-19T04:05:14;28.65;;;21.80;;
60372;SDS011;46216;52.220;5.134;2022-08-19T04:07:40;31.58;;;21.63;;
60372;SDS011;46216;52.220;5.134;2022-08-19T04:10:05;32.55;;;22.52;;
60372;SDS011;46216;52.220;5.134;2022-08-19T04:12:31;33.97;;;22.25;;
60372;SDS011;46216;52.220;5.134;2022-08-19T04:14:57;35.78;;;22.85;;
60372;SDS011;46216;52.220;5.134;2022-08-19T04:17:23;33.42;;;22.67;;
60372;SDS011;46216;52.220;5.134;2022-08-19T04:19:48;31.15;;;22.52;;
60372;SDS011;46216;52.220;5.134;2022-08-19T04:22:14;32.75;;;22.45;;
60372;SDS011;46216;52.220;5.134;2022-08-19T04:24:39;29.38;;;22.20;;
60372;SDS011;46216;52.220;5.134;2022-08-19T04:27:04;34.20;;;22.50;;
60372;SDS011;46216;52.220;5.134;2022-08-19T04:29:30;33.80;;;23.67;;
60372;SDS011;46216;52.220;5.134;2022-08-19T04:31:56;33.25;;;24.08;;
60372;SDS011;46216;52.220;5.134;2022-08-19T04:34:24;40.58;;;25.67;;
60372;SDS011;46216;52.220;5.134;2022-08-19T04:36:51;39.65;;;25.77;;
60372;SDS011;46216;52.220;5.134;2022-08-19T04:39:19;45.55;;;28.70;;
60372;SDS011;46216;52.220;5.134;2022-08-19T04:41:47;43.83;;;27.08;;
60372;SDS011;46216;52.220;5.134;2022-08-19T04:44:32;48.17;;;29.27;;
60372;SDS011;46216;52.220;5.134;2022-08-19T04:46:59;46.90;;;28.33;;
60372;SDS011;46216;52.220;5.134;2022-08-19T04:49:25;50.22;;;29.98;;
60372;SDS011;46216;52.220;5.134;2022-08-19T04:51:51;48.38;;;29.10;;
60372;SDS011;46216;52.220;5.134;2022-08-19T04:54:19;47.60;;;29.00;;
60372;SDS011;46216;52.220;5.134;2022-08-19T04:56:48;47.53;;;28.75;;
60372;SDS011;46216;52.220;5.134;2022-08-19T04:59:15;45.90;;;28.92;;
60372;SDS011;46216;52.220;5.134;2022-08-19T05:01:42;46.95;;;28.83;;
60372;SDS011;46216;52.220;5.134;2022-08-19T05:04:07;53.35;;;30.27;;
60372;SDS011;46216;52.220;5.134;2022-08-19T05:06:34;42.65;;;28.05;;
60372;SDS011;46216;52.220;5.134;2022-08-19T05:09:01;52.88;;;30.10;;
60372;SDS011;46216;52.220;5.134;2022-08-19T05:11:30;46.33;;;29.00;;
60372;SDS011;46216;52.220;5.134;2022-08-19T05:13:58;49.60;;;30.35;;
60372;SDS011;46216;52.220;5.134;2022-08-19T05:16:24;49.55;;;29.77;;
60372;SDS011;46216;52.220;5.134;2022-08-19T05:18:51;45.45;;;29.52;;
60372;SDS011;46216;52.220;5.134;2022-08-19T05:21:36;50.95;;;31.50;;
60372;SDS011;46216;52.220;5.134;2022-08-19T05:24:21;49.95;;;31.27;;
60372;SDS011;46216;52.220;5.134;2022-08-19T05:26:48;54.40;;;33.85;;
60372;SDS011;46216;52.220;5.134;2022-08-19T05:29:16;51.30;;;31.95;;
60372;SDS011;46216;52.220;5.134;2022-08-19T05:31:44;52.38;;;30.75;;
60372;SDS011;46216;52.220;5.134;2022-08-19T05:34:11;45.65;;;30.05;;
60372;SDS011;46216;52.220;5.134;2022-08-19T05:36:38;46.60;;;30.35;;
60372;SDS011;46216;52.220;5.134;2022-08-19T05:39:10;50.35;;;29.80;;
60372;SDS011;46216;52.220;5.134;2022-08-19T05:41:49;44.25;;;29.35;;
60372;SDS011;46216;52.220;5.134;2022-08-19T05:44:17;53.88;;;29.73;;
60372;SDS011;46216;52.220;5.134;2022-08-19T05:46:43;49.70;;;30.75;;
60372;SDS011;46216;52.220;5.134;2022-08-19T05:49:12;52.67;;;32.55;;
60372;SDS011;46216;52.220;5.134;2022-08-19T05:51:38;53.17;;;32.65;;
60372;SDS011;46216;52.220;5.134;2022-08-19T05:54:05;55.10;;;34.55;;
60372;SDS011;46216;52.220;5.134;2022-08-19T05:56:31;66.63;;;38.08;;
60372;SDS011;46216;52.220;5.134;2022-08-19T05:58:57;64.03;;;37.20;;
60372;SDS011;46216;52.220;5.134;2022-08-19T06:01:24;69.22;;;39.05;;
60372;SDS011;46216;52.220;5.134;2022-08-19T06:03:50;69.38;;;39.15;;
60372;SDS011;46216;52.220;5.134;2022-08-19T06:06:16;82.50;;;43.25;;
60372;SDS011;46216;52.220;5.134;2022-08-19T06:08:41;71.90;;;41.60;;
60372;SDS011;46216;52.220;5.134;2022-08-19T06:11:18;79.47;;;43.50;;
60372;SDS011;46216;52.220;5.134;2022-08-19T06:13:44;84.13;;;45.83;;
60372;SDS011;46216;52.220;5.134;2022-08-19T06:16:12;83.03;;;45.30;;
60372;SDS011;46216;52.220;5.134;2022-08-19T06:18:47;93.82;;;44.60;;
60372;SDS011;46216;52.220;5.134;2022-08-19T06:21:25;96.30;;;45.45;;
60372;SDS011;46216;52.220;5.134;2022-08-19T06:23:52;103.10;;;43.42;;
60372;SDS011;46216;52.220;5.134;2022-08-19T06:26:18;99.90;;;44.20;;
60372;SDS011;46216;52.220;5.134;2022-08-19T06:28:45;97.65;;;45.45;;
60372;SDS011;46216;52.220;5.134;2022-08-19T06:31:15;94.97;;;42.75;;
60372;SDS011;46216;52.220;5.134;2022-08-19T06:33:43;90.45;;;41.30;;
60372;SDS011;46216;52.220;5.134;2022-08-19T06:36:20;97.13;;;42.83;;
60372;SDS011;46216;52.220;5.134;2022-08-19T06:38:46;104.13;;;42.50;;
60372;SDS011;46216;52.220;5.134;2022-08-19T06:41:12;100.55;;;44.45;;
60372;SDS011;46216;52.220;5.134;2022-08-19T06:43:38;100.07;;;44.00;;
60372;SDS011;46216;52.220;5.134;2022-08-19T06:46:03;102.95;;;45.63;;
60372;SDS011;46216;52.220;5.134;2022-08-19T06:48:36;99.82;;;44.95;;
60372;SDS011;46216;52.220;5.134;2022-08-19T06:51:01;103.00;;;47.35;;
60372;SDS011;46216;52.220;5.134;2022-08-19T06:53:30;97.95;;;45.90;;
60372;SDS011;46216;52.220;5.134;2022-08-19T06:55:55;102.60;;;47.15;;
60372;SDS011;46216;52.220;5.134;2022-08-19T06:58:25;109.93;;;48.47;;
60372;SDS011;46216;52.220;5.134;2022-08-19T07:00:50;104.93;;;48.70;;
60372;SDS011;46216;52.220;5.134;2022-08-19T07:03:16;116.10;;;50.15;;
60372;SDS011;46216;52.220;5.134;2022-08-19T07:05:42;113.22;;;50.78;;
60372;SDS011;46216;52.220;5.134;2022-08-19T07:08:08;105.45;;;49.67;;
60372;SDS011;46216;52.220;5.134;2022-08-19T07:10:35;111.93;;;51.65;;
60372;SDS011;46216;52.220;5.134;2022-08-19T07:13:01;103.55;;;50.40;;
60372;SDS011;46216;52.220;5.134;2022-08-19T07:15:28;97.43;;;49.42;;
60372;SDS011;46216;52.220;5.134;2022-08-19T07:17:53;95.60;;;49.38;;
60372;SDS011;46216;52.220;5.134;2022-08-19T07:20:18;96.55;;;48.83;;
60372;SDS011;46216;52.220;5.134;2022-08-19T07:22:44;103.57;;;48.92;;
60372;SDS011;46216;52.220;5.134;2022-08-19T07:25:13;102.32;;;52.00;;
60372;SDS011;46216;52.220;5.134;2022-08-19T07:27:38;97.40;;;51.97;;
60372;SDS011;46216;52.220;5.134;2022-08-19T07:30:04;95.57;;;51.78;;
60372;SDS011;46216;52.220;5.134;2022-08-19T07:32:30;93.45;;;53.13;;
60372;SDS011;46216;52.220;5.134;2022-08-19T07:34:56;101.00;;;52.30;;
60372;SDS011;46216;52.220;5.134;2022-08-19T07:37:21;100.60;;;51.95;;
60372;SDS011;46216;52.220;5.134;2022-08-19T07:39:46;99.88;;;54.03;;
60372;SDS011;46216;52.220;5.134;2022-08-19T07:42:12;100.75;;;55.03;;
60372;SDS011;46216;52.220;5.134;2022-08-19T07:44:39;100.25;;;55.05;;
60372;SDS011;46216;52.220;5.134;2022-08-19T07:47:05;98.18;;;54.03;;
60372;SDS011;46216;52.220;5.134;2022-08-19T07:49:32;97.65;;;55.35;;
60372;SDS011;46216;52.220;5.134;2022-08-19T07:51:59;97.40;;;54.33;;
60372;SDS011;46216;52.220;5.134;2022-08-19T07:54:30;94.03;;;53.70;;
60372;SDS011;46216;52.220;5.134;2022-08-19T07:56:59;92.63;;;53.25;;
60372;SDS011;46216;52.220;5.134;2022-08-19T07:59:25;83.43;;;52.35;;
60372;SDS011;46216;52.220;5.134;2022-08-19T08:01:50;76.00;;;48.08;;
60372;SDS011;46216;52.220;5.134;2022-08-19T08:04:17;73.38;;;48.42;;
60372;SDS011;46216;52.220;5.134;2022-08-19T08:07:03;73.93;;;48.78;;
60372;SDS011;46216;52.220;5.134;2022-08-19T08:09:49;71.90;;;47.40;;
60372;SDS011;46216;52.220;5.134;2022-08-19T08:12:22;74.00;;;48.75;;
60372;SDS011;46216;52.220;5.134;2022-08-19T08:14:55;87.47;;;52.00;;
60372;SDS011;46216;52.220;5.134;2022-08-19T08:17:24;83.88;;;50.63;;
60372;SDS011;46216;52.220;5.134;2022-08-19T08:19:51;82.43;;;52.65;;
60372;SDS011;46216;52.220;5.134;2022-08-19T08:22:18;80.28;;;50.35;;
60372;SDS011;46216;52.220;5.134;2022-08-19T08:25:14;83.28;;;51.42;;
60372;SDS011;46216;52.220;5.134;2022-08-19T08:27:42;75.13;;;49.17;;
60372;SDS011;46216;52.220;5.134;2022-08-19T08:30:10;80.97;;;51.42;;
60372;SDS011;46216;52.220;5.134;2022-08-19T08:32:37;76.75;;;49.95;;
60372;SDS011;46216;52.220;5.134;2022-08-19T08:35:04;73.03;;;50.08;;
60372;SDS011;46216;52.220;5.134;2022-08-19T08:37:31;74.28;;;49.75;;
60372;SDS011;46216;52.220;5.134;2022-08-19T08:39:57;75.78;;;49.60;;
60372;SDS011;46216;52.220;5.134;2022-08-19T08:42:32;74.50;;;51.25;;
60372;SDS011;46216;52.220;5.134;2022-08-19T08:45:11;72.22;;;50.47;;
60372;SDS011;46216;52.220;5.134;2022-08-19T08:47:41;73.00;;;49.70;;
60372;SDS011;46216;52.220;5.134;2022-08-19T08:50:18;75.32;;;49.72;;
60372;SDS011;46216;52.220;5.134;2022-08-19T08:52:48;75.38;;;49.53;;
60372;SDS011;46216;52.220;5.134;2022-08-19T08:55:19;71.28;;;49.38;;
60372;SDS011;46216;52.220;5.134;2022-08-19T09:00:17;67.43;;;46.63;;
60372;SDS011;46216;52.220;5.134;2022-08-19T09:02:46;71.18;;;47.00;;
60372;SDS011;46216;52.220;5.134;2022-08-19T09:05:12;68.28;;;48.50;;
60372;SDS011;46216;52.220;5.134;2022-08-19T09:07:45;66.30;;;46.03;;
60372;SDS011;46216;52.220;5.134;2022-08-19T09:13:32;59.35;;;45.38;;
60372;SDS011;46216;52.220;5.134;2022-08-19T09:16:05;65.25;;;46.05;;
60372;SDS011;46216;52.220;5.134;2022-08-19T09:18:47;63.60;;;44.83;;
60372;SDS011;46216;52.220;5.134;2022-08-19T09:21:18;60.42;;;45.20;;
60372;SDS011;46216;52.220;5.134;2022-08-19T09:23:45;56.42;;;43.33;;
60372;SDS011;46216;52.220;5.134;2022-08-19T09:26:12;52.72;;;42.17;;
60372;SDS011;46216;52.220;5.134;2022-08-19T09:28:40;55.72;;;42.85;;
60372;SDS011;46216;52.220;5.134;2022-08-19T09:31:10;56.75;;;42.38;;
60372;SDS011;46216;52.220;5.134;2022-08-19T09:33:37;51.03;;;40.63;;
60372;SDS011;46216;52.220;5.134;2022-08-19T09:36:07;53.95;;;40.95;;
60372;SDS011;46216;52.220;5.134;2022-08-19T09:38:35;54.65;;;39.53;;
60372;SDS011;46216;52.220;5.134;2022-08-19T09:41:05;53.28;;;41.58;;
60372;SDS011;46216;52.220;5.134;2022-08-19T09:43:32;50.92;;;38.83;;
60372;SDS011;46216;52.220;5.134;2022-08-19T09:46:04;47.33;;;38.60;;
60372;SDS011;46216;52.220;5.134;2022-08-19T09:48:31;52.03;;;38.35;;
60372;SDS011;46216;52.220;5.134;2022-08-19T09:51:04;43.33;;;36.90;;
60372;SDS011;46216;52.220;5.134;2022-08-19T09:53:33;48.83;;;38.75;;
60372;SDS011;46216;52.220;5.134;2022-08-19T09:55:59;44.38;;;36.30;;
60372;SDS011;46216;52.220;5.134;2022-08-19T09:58:24;47.72;;;38.13;;
60372;SDS011;46216;52.220;5.134;2022-08-19T10:00:53;44.95;;;37.47;;
60372;SDS011;46216;52.220;5.134;2022-08-19T10:03:19;42.00;;;36.45;;
60372;SDS011;46216;52.220;5.134;2022-08-19T10:05:44;46.70;;;37.40;;
60372;SDS011;46216;52.220;5.134;2022-08-19T10:08:13;41.10;;;35.03;;
60372;SDS011;46216;52.220;5.134;2022-08-19T10:10:39;46.97;;;35.88;;
60372;SDS011;46216;52.220;5.134;2022-08-19T10:13:05;43.17;;;34.90;;
60372;SDS011;46216;52.220;5.134;2022-08-19T10:15:31;38.05;;;32.78;;
60372;SDS011;46216;52.220;5.134;2022-08-19T10:17:56;43.00;;;35.70;;
60372;SDS011;46216;52.220;5.134;2022-08-19T10:20:22;40.30;;;34.60;;
60372;SDS011;46216;52.220;5.134;2022-08-19T10:22:47;42.50;;;33.30;;
60372;SDS011;46216;52.220;5.134;2022-08-19T10:25:13;41.95;;;32.95;;
60372;SDS011;46216;52.220;5.134;2022-08-19T10:27:41;38.30;;;30.60;;
60372;SDS011;46216;52.220;5.134;2022-08-19T10:30:07;39.30;;;30.95;;
60372;SDS011;46216;52.220;5.134;2022-08-19T10:32:33;37.22;;;31.77;;
60372;SDS011;46216;52.220;5.134;2022-08-19T10:34:58;31.40;;;24.50;;
60372;SDS011;46216;52.220;5.134;2022-08-19T10:37:24;28.27;;;23.00;;
60372;SDS011;46216;52.220;5.134;2022-08-19T10:39:49;29.00;;;23.75;;
60372;SDS011;46216;52.220;5.134;2022-08-19T10:42:15;27.60;;;22.08;;
60372;SDS011;46216;52.220;5.134;2022-08-19T10:44:41;26.25;;;22.05;;
60372;SDS011;46216;52.220;5.134;2022-08-19T10:47:07;26.50;;;22.25;;
60372;SDS011;46216;52.220;5.134;2022-08-19T10:49:33;24.45;;;20.80;;
60372;SDS011;46216;52.220;5.134;2022-08-19T10:52:18;27.80;;;21.15;;
60372;SDS011;46216;52.220;5.134;2022-08-19T10:54:59;25.95;;;20.80;;
60372;SDS011;46216;52.220;5.134;2022-08-19T10:57:44;23.63;;;20.23;;
60372;SDS011;46216;52.220;5.134;2022-08-19T11:00:10;20.38;;;18.20;;
60372;SDS011;46216;52.220;5.134;2022-08-19T11:02:36;19.33;;;16.58;;
60372;SDS011;46216;52.220;5.134;2022-08-19T11:05:01;18.88;;;15.23;;
60372;SDS011;46216;52.220;5.134;2022-08-19T11:07:27;17.73;;;13.82;;
60372;SDS011;46216;52.220;5.134;2022-08-19T11:09:53;16.13;;;11.45;;
60372;SDS011;46216;52.220;5.134;2022-08-19T11:12:18;19.40;;;13.48;;
60372;SDS011;46216;52.220;5.134;2022-08-19T11:14:44;21.85;;;15.07;;
60372;SDS011;46216;52.220;5.134;2022-08-19T11:17:10;23.00;;;17.90;;
60372;SDS011;46216;52.220;5.134;2022-08-19T11:19:38;19.83;;;17.92;;
60372;SDS011;46216;52.220;5.134;2022-08-19T11:22:07;20.02;;;17.90;;
60372;SDS011;46216;52.220;5.134;2022-08-19T11:24:34;22.30;;;18.48;;
60372;SDS011;46216;52.220;5.134;2022-08-19T11:27:05;23.27;;;17.83;;
60372;SDS011;46216;52.220;5.134;2022-08-19T11:29:34;20.55;;;17.67;;
60372;SDS011;46216;52.220;5.134;2022-08-19T11:32:00;22.63;;;17.83;;
60372;SDS011;46216;52.220;5.134;2022-08-19T11:34:30;23.98;;;17.95;;
60372;SDS011;46216;52.220;5.134;2022-08-19T11:36:55;21.90;;;19.02;;
60372;SDS011;46216;52.220;5.134;2022-08-19T11:39:23;20.35;;;17.88;;
60372;SDS011;46216;52.220;5.134;2022-08-19T11:41:50;20.08;;;17.85;;
60372;SDS011;46216;52.220;5.134;2022-08-19T11:44:16;26.90;;;19.58;;
60372;SDS011;46216;52.220;5.134;2022-08-19T11:46:42;32.97;;;24.58;;
60372;SDS011;46216;52.220;5.134;2022-08-19T11:49:11;30.60;;;27.10;;
60372;SDS011;46216;52.220;5.134;2022-08-19T11:51:36;30.83;;;27.00;;
60372;SDS011;46216;52.220;5.134;2022-08-19T11:54:03;28.15;;;25.20;;
60372;SDS011;46216;52.220;5.134;2022-08-19T11:56:30;29.98;;;24.75;;
60372;SDS011;46216;52.220;5.134;2022-08-19T11:58:55;29.48;;;24.75;;
60372;SDS011;46216;52.220;5.134;2022-08-19T12:01:22;29.63;;;25.52;;
60372;SDS011;46216;52.220;5.134;2022-08-19T12:03:49;26.50;;;23.70;;
60372;SDS011;46216;52.220;5.134;2022-08-19T12:06:17;27.05;;;22.88;;
60372;SDS011;46216;52.220;5.134;2022-08-19T12:08:45;26.13;;;23.25;;
60372;SDS011;46216;52.220;5.134;2022-08-19T12:11:11;26.85;;;24.05;;
60372;SDS011;46216;52.220;5.134;2022-08-19T12:13:38;26.60;;;23.88;;
60372;SDS011;46216;52.220;5.134;2022-08-19T12:16:08;27.50;;;24.55;;
60372;SDS011;46216;52.220;5.134;2022-08-19T12:18:36;20.45;;;18.27;;
60372;SDS011;46216;52.220;5.134;2022-08-19T12:21:02;17.88;;;15.88;;
60372;SDS011;46216;52.220;5.134;2022-08-19T12:23:28;16.02;;;14.38;;
60372;SDS011;46216;52.220;5.134;2022-08-19T12:25:54;17.23;;;15.48;;
60372;SDS011;46216;52.220;5.134;2022-08-19T12:28:20;17.40;;;15.02;;
60372;SDS011;46216;52.220;5.134;2022-08-19T12:30:47;19.38;;;15.30;;
60372;SDS011;46216;52.220;5.134;2022-08-19T12:33:15;17.83;;;14.38;;
60372;SDS011;46216;52.220;5.134;2022-08-19T12:35:41;18.48;;;13.68;;
60372;SDS011;46216;52.220;5.134;2022-08-19T12:38:08;17.58;;;14.80;;
60372;SDS011;46216;52.220;5.134;2022-08-19T12:40:34;17.30;;;13.68;;
60372;SDS011;46216;52.220;5.134;2022-08-19T12:42:59;16.08;;;12.57;;
60372;SDS011;46216;52.220;5.134;2022-08-19T12:45:25;16.70;;;12.07;;
60372;SDS011;46216;52.220;5.134;2022-08-19T12:47:50;17.83;;;12.82;;
60372;SDS011;46216;52.220;5.134;2022-08-19T12:50:17;13.32;;;11.77;;
60372;SDS011;46216;52.220;5.134;2022-08-19T12:52:46;19.00;;;11.50;;
60372;SDS011;46216;52.220;5.134;2022-08-19T12:55:12;15.75;;;10.77;;
60372;SDS011;46216;52.220;5.134;2022-08-19T12:57:37;15.27;;;10.25;;
60372;SDS011;46216;52.220;5.134;2022-08-19T13:00:07;13.90;;;10.60;;
60372;SDS011;46216;52.220;5.134;2022-08-19T13:02:40;11.82;;;10.60;;
60372;SDS011;46216;52.220;5.134;2022-08-19T13:05:07;15.48;;;10.02;;
60372;SDS011;46216;52.220;5.134;2022-08-19T13:07:35;13.38;;;10.80;;
60372;SDS011;46216;52.220;5.134;2022-08-19T13:10:02;13.90;;;10.68;;
60372;SDS011;46216;52.220;5.134;2022-08-19T13:12:28;15.27;;;10.98;;
60372;SDS011;46216;52.220;5.134;2022-08-19T13:14:54;13.52;;;10.60;;
60372;SDS011;46216;52.220;5.134;2022-08-19T13:17:20;15.52;;;9.32;;
60372;SDS011;46216;52.220;5.134;2022-08-19T13:19:46;12.20;;;8.93;;
60372;SDS011;46216;52.220;5.134;2022-08-19T13:22:11;12.13;;;8.48;;
60372;SDS011;46216;52.220;5.134;2022-08-19T13:24:37;11.93;;;7.95;;
60372;SDS011;46216;52.220;5.134;2022-08-19T13:27:03;9.10;;;7.18;;
60372;SDS011;46216;52.220;5.134;2022-08-19T13:29:28;10.93;;;7.18;;
60372;SDS011;46216;52.220;5.134;2022-08-19T13:32:12;10.40;;;7.35;;
60372;SDS011;46216;52.220;5.134;2022-08-19T13:34:56;8.98;;;7.20;;
60372;SDS011;46216;52.220;5.134;2022-08-19T13:37:22;8.43;;;6.35;;
60372;SDS011;46216;52.220;5.134;2022-08-19T13:40:07;9.30;;;6.72;;
60372;SDS011;46216;52.220;5.134;2022-08-19T13:42:40;8.75;;;6.30;;
60372;SDS011;46216;52.220;5.134;2022-08-19T13:45:06;9.93;;;7.45;;
60372;SDS011;46216;52.220;5.134;2022-08-19T13:47:33;9.95;;;6.35;;
60372;SDS011;46216;52.220;5.134;2022-08-19T13:50:07;10.25;;;6.03;;
60372;SDS011;46216;52.220;5.134;2022-08-19T13:52:37;7.13;;;5.22;;
60372;SDS011;46216;52.220;5.134;2022-08-19T13:55:03;7.88;;;4.80;;
60372;SDS011;46216;52.220;5.134;2022-08-19T13:57:29;5.80;;;4.55;;
60372;SDS011;46216;52.220;5.134;2022-08-19T13:59:55;5.45;;;4.28;;
60372;SDS011;46216;52.220;5.134;2022-08-19T14:02:22;5.85;;;3.58;;
60372;SDS011;46216;52.220;5.134;2022-08-19T14:04:48;4.57;;;4.05;;
60372;SDS011;46216;52.220;5.134;2022-08-19T14:07:13;12.45;;;5.03;;
60372;SDS011;46216;52.220;5.134;2022-08-19T14:09:39;7.07;;;4.47;;
60372;SDS011;46216;52.220;5.134;2022-08-19T14:12:04;6.72;;;4.90;;
60372;SDS011;46216;52.220;5.134;2022-08-19T14:14:30;5.45;;;4.30;;
60372;SDS011;46216;52.220;5.134;2022-08-19T14:16:55;5.28;;;3.55;;
60372;SDS011;46216;52.220;5.134;2022-08-19T14:19:20;4.00;;;3.70;;
60372;SDS011;46216;52.220;5.134;2022-08-19T14:21:46;4.55;;;4.10;;
60372;SDS011;46216;52.220;5.134;2022-08-19T14:24:11;4.70;;;3.65;;
60372;SDS011;46216;52.220;5.134;2022-08-19T14:26:37;4.13;;;3.17;;
60372;SDS011;46216;52.220;5.134;2022-08-19T14:29:03;3.65;;;3.35;;
60372;SDS011;46216;52.220;5.134;2022-08-19T14:31:28;4.03;;;2.97;;
60372;SDS011;46216;52.220;5.134;2022-08-19T14:33:53;5.45;;;3.50;;
60372;SDS011;46216;52.220;5.134;2022-08-19T14:36:19;5.72;;;3.65;;